Map

Track Data

SID SEASON NUMBER BASIN SUBBASIN NAME ISO_TIME NATURE LAT LON WMO_WIND WMO_PRES WMO_AGENCY TRACK_TYPE DIST2LAND LANDFALL IFLAG USA_AGENCY USA_ATCF_ID USA_LAT USA_LON USA_RECORD USA_STATUS USA_WIND USA_PRES USA_SSHS USA_R34_NE USA_R34_SE USA_R34_SW USA_R34_NW USA_R50_NE USA_R50_SE USA_R50_SW USA_R50_NW USA_R64_NE USA_R64_SE USA_R64_SW USA_R64_NW USA_POCI USA_ROCI USA_RMW USA_EYE TOKYO_LAT TOKYO_LON TOKYO_GRADE TOKYO_WIND TOKYO_PRES TOKYO_R50_DIR TOKYO_R50_LONG TOKYO_R50_SHORT TOKYO_R30_DIR TOKYO_R30_LONG TOKYO_R30_SHORT TOKYO_LAND CMA_LAT CMA_LON CMA_CAT CMA_WIND CMA_PRES HKO_LAT HKO_LON HKO_CAT HKO_WIND HKO_PRES NEWDELHI_LAT NEWDELHI_LON NEWDELHI_GRADE NEWDELHI_WIND NEWDELHI_PRES NEWDELHI_CI NEWDELHI_DP NEWDELHI_POCI REUNION_LAT REUNION_LON REUNION_TYPE REUNION_WIND REUNION_PRES REUNION_TNUM REUNION_CI REUNION_RMW REUNION_R34_NE REUNION_R34_SE REUNION_R34_SW REUNION_R34_NW REUNION_R50_NE REUNION_R50_SE REUNION_R50_SW REUNION_R50_NW REUNION_R64_NE REUNION_R64_SE REUNION_R64_SW REUNION_R64_NW BOM_LAT BOM_LON BOM_TYPE BOM_WIND BOM_PRES BOM_TNUM BOM_CI BOM_RMW BOM_R34_NE BOM_R34_SE BOM_R34_SW BOM_R34_NW BOM_R50_NE BOM_R50_SE BOM_R50_SW BOM_R50_NW BOM_R64_NE BOM_R64_SE BOM_R64_SW BOM_R64_NW BOM_ROCI BOM_POCI BOM_EYE BOM_POS_METHOD BOM_PRES_METHOD NADI_LAT NADI_LON NADI_CAT NADI_WIND NADI_PRES WELLINGTON_LAT WELLINGTON_LON WELLINGTON_WIND WELLINGTON_PRES DS824_LAT DS824_LON DS824_STAGE DS824_WIND DS824_PRES TD9636_LAT TD9636_LON TD9636_STAGE TD9636_WIND TD9636_PRES TD9635_LAT TD9635_LON TD9635_WIND TD9635_PRES TD9635_ROCI NEUMANN_LAT NEUMANN_LON NEUMANN_CLASS NEUMANN_WIND NEUMANN_PRES MLC_LAT MLC_LON MLC_CLASS MLC_WIND MLC_PRES USA_GUST BOM_GUST BOM_GUST_PER REUNION_GUST REUNION_GUST_PER USA_SEAHGT USA_SEARAD_NE USA_SEARAD_SE USA_SEARAD_SW USA_SEARAD_NW STORM_SPEED STORM_DIR
1942287N17090 1942 64 NI BB NOT_NAMED 1942-10-14 00:00:00 TS 17.3000 90.3000 main 406 406 _________O____ -1 17.3000 90.3000 TC 30 4 276
1942287N17090 1942 64 NI BB NOT_NAMED 1942-10-14 03:00:00 TS 17.3217 90.0950 main 425 425 _________PO___ -1 17.3326 89.9925 TC 30 17.3000 90.3000 1 5 281
1942287N17090 1942 64 NI BB NOT_NAMED 1942-10-14 06:00:00 TS 17.3933 89.8201 main 444 437 _________OP___ -1 17.4000 89.7000 TC 30 17.3832 90.0002 1 5 289
1942287N17090 1942 64 NI BB NOT_NAMED 1942-10-14 09:00:00 TS 17.5041 89.5530 main 437 406 _________PP___ -1 17.5275 89.4350 TC 30 17.4730 89.7103 1 5 297
1942287N17090 1942 64 NI BB NOT_NAMED 1942-10-14 12:00:00 TS 17.6381 89.3201 main 406 375 _________OP___ -1 17.7000 89.2000 TC 30 17.5762 89.4402 1 5 304
1942287N17090 1942 64 NI BB NOT_NAMED 1942-10-14 15:00:00 TS 17.7962 89.0925 main 375 345 _________PO___ -1 17.8925 88.9850 TC 31 17.7000 89.2000 1 5 310
1942287N17090 1942 64 NI BB NOT_NAMED 1942-10-14 18:00:00 TS 17.9754 88.8980 main 345 321 _________OP___ -1 18.1000 88.8000 TC 32 17.8507 88.9960 1 5 317
1942287N17090 1942 64 NI BB NOT_NAMED 1942-10-14 21:00:00 TS 18.1586 88.7348 main 314 291 _________PP___ -1 18.2850 88.6499 TC 33 18.0323 88.8197 1 5 323
1942287N17090 1942 64 NI BB NOT_NAMED 1942-10-15 00:00:00 TS 18.3738 88.5792 main 291 260 _________OP___ -1 18.5000 88.5000 TC 34 18.2477 88.6585 1 6 327
1942287N17090 1942 64 NI BB NOT_NAMED 1942-10-15 03:00:00 TS 18.6388 88.4000 main 260 221 _________PO___ -1 18.7775 88.3000 TC 36 18.5000 88.5000 2 7 328
1942287N17090 1942 64 NI BB NOT_NAMED 1942-10-15 06:00:00 TS 18.9385 88.2005 main 221 183 _________OP___ -1 19.1000 88.1000 TC 39 18.7770 88.3009 2 7 330
1942287N17090 1942 64 NI BB NOT_NAMED 1942-10-15 09:00:00 TS 19.2626 88.0165 main 176 147 _________PP___ -1 19.4350 87.9275 TC 42 19.0901 88.1055 2 8 335
1942287N17090 1942 64 NI BB NOT_NAMED 1942-10-15 12:00:00 TS 19.6166 87.8661 main 147 114 _________OP___ -1 19.8000 87.8000 TC 45 19.4332 87.9322 2 8 342
1942287N17090 1942 64 NI BB NOT_NAMED 1942-10-15 15:00:00 TS 19.9962 87.7637 main 114 80 _________PO___ -1 20.1925 87.7274 TC 49 19.8000 87.8000 3 8 350
1942287N17090 1942 64 NI BB NOT_NAMED 1942-10-15 18:00:00 TS 20.4034 87.7117 main 80 72 _________OP___ -1 20.6000 87.7000 TC 54 20.2068 87.7234 3 8 355
1942287N17090 1942 64 NI BB NOT_NAMED 1942-10-15 21:00:00 TS 20.8224 87.6873 main 72 54 _________PP___ -1 21.0150 87.6850 TC 59 20.6299 87.6896 3 8 0
1942287N17090 1942 64 NI BB NOT_NAMED 1942-10-16 00:00:00 TS 21.2190 87.6930 main 54 11 _________OP___ -1 21.4000 87.7000 TC 64 21.0381 87.6860 3 8 3
1942287N17090 1942 64 NI BB NOT_NAMED 1942-10-16 03:00:00 TS 21.5688 87.7250 main 11 0 _________PO___ -1 21.7375 87.7499 TC 64 21.4000 87.7000 4 6 5
1942287N17090 1942 64 NI BB NOT_NAMED 1942-10-16 06:00:00 TS 21.8559 87.7572 main 0 0 _________OP___ -1 22.0000 87.8000 TC 64 21.7119 87.7145 4 5 5
1942287N17090 1942 64 NI BB NOT_NAMED 1942-10-16 09:00:00 TS 22.0825 87.7749 main 0 0 _________PP___ -1 22.1950 87.8075 TC 64 21.9700 87.7423 4 4 0
1942287N17090 1942 64 NI BB NOT_NAMED 1942-10-16 12:00:00 TS 22.2341 87.7870 main 0 0 _________OP___ -1 22.3000 87.8000 TC 64 22.1681 87.7739 4 2 0
1942287N17090 1942 64 NI BB NOT_NAMED 1942-10-16 15:00:00 TS 22.3112 87.8000 main 0 0 _________PO___ -1 22.3225 87.8000 TC 56 22.3000 87.8000 4 1 0
1942287N17090 1942 64 NI BB NOT_NAMED 1942-10-16 18:00:00 TS 22.3323 87.8036 main 0 0 _________OP___ -1 22.3000 87.8000 TC 49 22.3647 87.8072 4 0 0
1942287N17090 1942 64 NI BB NOT_NAMED 1942-10-16 21:00:00 TS 22.3337 87.8038 main 0 0 _________PP___ -1 22.3000 87.8000 TC 41 22.3675 87.8076 4 0 0
1942287N17090 1942 64 NI BB NOT_NAMED 1942-10-17 00:00:00 TS 22.3183 87.8020 main 0 0 _________OP___ -1 22.3000 87.8000 TC 34 22.3366 87.8041 4 0 211
1942287N17090 1942 64 NI BB NOT_NAMED 1942-10-17 03:00:00 TS 22.3000 87.8000 main 0 0 _________PO___ -1 22.3000 87.8000 TC 36 22.3000 87.8000 2 1 0
1942287N17090 1942 64 NI BB NOT_NAMED 1942-10-17 06:00:00 TS 22.2573 87.7880 main 0 0 _________OP___ -1 22.3000 87.8000 TC 39 22.2147 87.7760 2 1 202
1942287N17090 1942 64 NI BB NOT_NAMED 1942-10-17 09:00:00 TS 22.1837 87.7667 main 0 0 _________PP___ -1 22.2250 87.7777 TC 42 22.1424 87.7558 2 0 214
1942287N17090 1942 64 NI BB NOT_NAMED 1942-10-17 12:00:00 TS 22.2245 87.7788 main 0 0 _________OP___ -1 22.3000 87.8000 TC 45 22.1490 87.7576 2 3 16
1942287N17090 1942 64 NI BB NOT_NAMED 1942-10-17 15:00:00 TS 22.5088 87.8637 main 0 0 _________PO___ -1 22.7175 87.9273 TC 41 22.3000 87.8000 3 7 15
1942287N17090 1942 64 NI BB NOT_NAMED 1942-10-17 18:00:00 TS 22.9236 87.9836 main 0 0 _________OP___ -1 23.3000 88.1000 TC 37 22.6414 87.8962 3 10 15
1942287N17090 1942 64 NI BB NOT_NAMED 1942-10-17 21:00:00 TS 23.4302 88.1256 main 0 0 _________PP___ -1 23.8650 88.2574 TC 33 23.1403 88.0377 3 11 14
1942287N17090 1942 64 NI BB NOT_NAMED 1942-10-18 00:00:00 TS 23.9627 88.2737 main 0 0 _________OP___ -1 24.4000 88.4000 TC 30 23.7441 88.2105 3 10 14
1942287N17090 1942 64 NI BB NOT_NAMED 1942-10-18 03:00:00 NR 24.4000 88.4000 main 0 __________O___ -1 TC 24.4000 88.4000 1 9 14

About IBTrACS Database

This database is a web-friendly format of International Best Track Archive for Climate Stewardship (IBTrACS), a global best track data archive curated by NOAA dating back to 1842.

Updated: 2021-12-03